createdAt,value
2022-09-27T00:07:21.429Z,20.70
2022-09-27T00:17:22.803Z,20.70
2022-09-27T00:27:24.200Z,20.60
2022-09-27T00:37:25.566Z,20.60
2022-09-27T00:47:26.944Z,20.60
2022-09-27T00:57:28.314Z,20.60
2022-09-27T01:07:29.691Z,20.60
2022-09-27T01:17:31.084Z,20.60
2022-09-27T01:27:32.502Z,20.60
2022-09-27T01:37:33.862Z,20.60
2022-09-27T01:47:35.244Z,20.50
2022-09-27T01:57:36.619Z,20.60
2022-09-27T02:07:37.993Z,20.50
2022-09-27T02:17:39.372Z,20.50
2022-09-27T02:27:40.749Z,20.50
2022-09-27T02:37:42.131Z,20.40
2022-09-27T02:47:43.516Z,20.50
2022-09-27T02:57:44.889Z,20.40
2022-09-27T03:07:46.357Z,20.40
2022-09-27T03:17:47.739Z,20.40
2022-09-27T03:27:49.098Z,20.50
2022-09-27T03:37:50.466Z,20.40
2022-09-27T03:47:51.834Z,20.40
2022-09-27T03:57:53.204Z,20.40
2022-09-27T04:07:54.584Z,20.40
2022-09-27T04:17:55.955Z,20.40
2022-09-27T04:27:57.344Z,20.40
2022-09-27T04:37:58.720Z,20.40
2022-09-27T04:48:00.160Z,20.40
2022-09-27T04:58:01.583Z,20.30
2022-09-27T05:08:03.012Z,20.40
2022-09-27T12:03:58.089Z,25.20
2022-09-27T12:13:59.473Z,23.30
2022-09-27T12:24:00.864Z,21.30
2022-09-27T12:34:02.326Z,20.10
2022-09-27T12:44:03.708Z,22.80
2022-09-27T12:54:07.947Z,23.70
2022-09-27T13:04:09.368Z,23.90
2022-09-27T13:14:18.628Z,24.10
2022-09-27T13:24:20.117Z,24.10
2022-09-27T13:34:21.591Z,24.00
2022-09-27T13:44:33.232Z,23.50
2022-09-27T13:54:35.096Z,24.50
2022-09-27T14:04:36.488Z,24.20
2022-09-27T14:14:37.869Z,24.20
2022-09-27T14:24:39.256Z,24.10
2022-09-27T14:34:40.644Z,24.10
2022-09-27T14:44:45.206Z,24.00
2022-09-27T14:54:46.781Z,24.10
2022-09-27T15:04:52.019Z,24.20
2022-09-27T15:14:56.662Z,24.00
2022-09-27T15:25:02.484Z,23.90
2022-09-27T15:35:08.633Z,23.70
2022-09-27T15:45:10.366Z,23.90
2022-09-27T15:55:11.868Z,23.50
2022-09-27T16:05:13.778Z,24.00
2022-09-27T16:15:15.319Z,23.80
2022-09-27T16:25:20.384Z,23.90
2022-09-27T16:35:22.978Z,24.20
2022-09-27T16:45:24.392Z,23.80
2022-09-27T16:55:25.782Z,23.90
2022-09-27T17:05:27.166Z,23.90
2022-09-27T17:15:28.571Z,24.50
2022-09-27T17:25:29.988Z,24.60
2022-09-27T17:35:31.378Z,23.20
2022-09-27T17:45:32.773Z,22.60
2022-09-27T17:55:34.153Z,21.90
2022-09-27T18:05:35.554Z,21.50
2022-09-27T18:15:36.940Z,21.20
2022-09-27T18:25:38.323Z,20.90
2022-09-27T18:35:39.771Z,20.80
2022-09-27T18:45:41.147Z,20.80
2022-09-27T18:55:42.532Z,20.70
2022-09-27T19:05:43.975Z,20.80
2022-09-27T19:15:45.454Z,20.60
2022-09-27T19:25:46.867Z,20.60
2022-09-27T19:35:48.258Z,20.40
2022-09-27T19:45:49.635Z,20.40
2022-09-27T19:55:51.033Z,20.50
2022-09-27T20:05:52.422Z,20.40
2022-09-27T20:15:53.889Z,20.30
2022-09-27T20:25:55.386Z,19.80
2022-09-27T20:35:56.778Z,20.30
2022-09-27T20:45:58.184Z,20.30
2022-09-27T20:55:59.560Z,20.30
2022-09-27T21:06:00.943Z,20.30
2022-09-27T21:16:02.395Z,20.30
2022-09-27T21:26:03.842Z,20.30
2022-09-27T21:36:05.234Z,20.30
2022-09-27T21:46:06.629Z,20.30
2022-09-27T21:56:08.038Z,20.20
2022-09-27T22:06:09.431Z,20.20
2022-09-27T22:16:10.867Z,20.20
2022-09-27T22:26:12.317Z,20.20
2022-09-27T22:36:13.760Z,20.20
2022-09-27T22:46:15.188Z,20.20
2022-09-27T22:56:16.618Z,20.20
2022-09-27T23:06:17.997Z,20.30
2022-09-27T23:16:19.415Z,20.20
2022-09-27T23:26:20.829Z,20.20
2022-09-27T23:36:22.211Z,20.20
2022-09-27T23:46:23.650Z,20.10
2022-09-27T23:56:25.083Z,20.10
